Aeroporto :
LOGIN :

Iscrizione | Disclaimer

   EN    FR    IT 

 










Sommario :    VFR   VFR Marginale   IFR   IFR Intensivo   IFR Molto Intensivo
Visibilità : 
Base nubi : 
>= 8 km
>= 3000ft
5 / 8 km
1000 / 3000 ft
1500m / 5 km
500 / 1000 ft
800 / 1500m
200 / 500 ft
< 800m
< 200 ft
Simboli :   Temporali  Nebbia  Neve Forte  Precipitazioni Forti  Vento > 20 kt
SIGMETs :   Varie  Temporali  Ghiacco  Turbolenza  Onda orograficha  Ceneri Vulcaniche






- Altitudine del aeroporto : 2555 ft
- Codice IATA : ADJ


OJAM - Marka Int.

ULTIMO METAR :
  • 050800Z 05004KT 7000 NSC 22/07 Q1017 NOSIG

METARs OBSOLETI :
  • 050700Z 05005KT 7000 NSC 20/05 Q1017 NOSIG
  • 050600Z 00000KT 6000 NSC 18/04 Q1017 NOSIG

TAF TAF OJAM
Valido dal 05 a 06 ore il 06 a 12 ore UTC


050415Z 0506/0612 09006KT 7000 NSC
TEMPO 0503/0518 13016KT 4000 HZ
PROB30 TMEPO 0506/0515 13020G30 2000 BLDU
BECMG 0518/0520 29006KT 5000 HZ FEW035



MetMap, La meteo Aeronautica in un colpo d'occhio ! - Copyright ORBIFLY Dicembre 2007 - Disclaimer

ORBIFLY MET'MAP TEAM :

Programmazione e sviluppo : Alexandra Zaïnal
Concezione : Baudouin d'Aumeries
Aiuto per la programmazione : Marc-Olivier Méhu
Supporto tecnico e logistico : Manuel Goepfert
Aiuto per la traduzione : Arnaldo La Scala

Contatto : metmap@orbifly.com




FONTI E CREDITI :

   NOAA